Time;durP1;ratioP1;P1;durP2;ratioP2;P2;SDS_P1;SDS_P2;PMS_P1;PMS_P2;Temp;Humidity;BMP_temperature;BMP_pressure;BME280_temperature;BME280_humidity;BME280_pressure;Samples;Min_cycle;Max_cycle;Signal;HPM_P1;HPM_P2
2023/06/18 00:02:05;;;;;;;3.65;3.35;;;21.30;63.90;;;;;;5001173;28;20049;-67
2023/06/18 00:04:31;;;;;;;3.85;3.45;;;21.30;63.90;;;;;;5001263;28;20129;-67
2023/06/18 00:06:57;;;;;;;3.72;3.42;;;21.20;64.00;;;;;;5000908;28;20561;-66
2023/06/18 00:09:23;;;;;;;3.70;3.40;;;21.30;63.90;;;;;;5000242;28;20038;-67
2023/06/18 00:11:49;;;;;;;3.92;3.63;;;21.30;63.90;;;;;;5003077;28;20030;-63
2023/06/18 00:14:15;;;;;;;3.75;3.45;;;21.30;63.90;;;;;;5000369;28;20029;-67
2023/06/18 00:16:41;;;;;;;3.88;3.58;;;21.30;63.90;;;;;;5005030;28;20072;-67
2023/06/18 00:19:06;;;;;;;3.63;3.05;;;21.30;63.90;;;;;;5004567;28;20029;-67
2023/06/18 00:21:32;;;;;;;4.20;3.80;;;21.20;64.00;;;;;;5003134;28;20087;-66
2023/06/18 00:23:57;;;;;;;3.85;3.53;;;21.30;64.00;;;;;;5002942;28;20503;-66
2023/06/18 00:26:25;;;;;;;3.42;3.13;;;21.20;63.90;;;;;;5002337;28;20314;-66
2023/06/18 00:28:51;;;;;;;4.78;3.65;;;21.30;63.90;;;;;;4999411;28;20170;-66
2023/06/18 00:31:17;;;;;;;3.80;3.50;;;21.20;63.90;;;;;;5004846;28;20034;-67
2023/06/18 00:33:46;;;;;;;4.38;3.80;;;21.20;63.90;;;;;;5002170;28;20036;-67
2023/06/18 00:36:12;;;;;;;4.22;3.50;;;21.20;63.90;;;;;;5002296;28;20058;-66
2023/06/18 00:38:45;;;;;;;4.30;3.90;;;21.20;64.00;;;;;;5003102;28;20204;-67
2023/06/18 00:41:11;;;;;;;4.13;3.47;;;21.30;63.90;;;;;;5003641;28;20033;-66
2023/06/18 00:43:37;;;;;;;4.10;3.40;;;21.20;63.90;;;;;;5003629;28;20052;-67
2023/06/18 00:46:04;;;;;;;3.45;3.15;;;21.20;63.90;;;;;;5001274;28;20026;-66
2023/06/18 00:48:31;;;;;;;3.70;3.40;;;21.20;63.90;;;;;;5002185;28;20034;-66
2023/06/18 00:50:58;;;;;;;4.00;3.60;;;21.20;63.90;;;;;;5003730;28;20030;-66
2023/06/18 00:53:25;;;;;;;3.55;3.25;;;21.20;64.00;;;;;;5004866;28;20081;-68
2023/06/18 00:55:51;;;;;;;3.45;3.15;;;21.20;63.90;;;;;;5004418;28;20518;-65
2023/06/18 00:58:17;;;;;;;3.47;3.13;;;21.30;64.00;;;;;;5002208;28;20052;-67
2023/06/18 01:00:43;;;;;;;3.90;3.47;;;21.20;63.90;;;;;;5002636;28;20033;-67
2023/06/18 01:03:16;;;;;;;3.88;3.47;;;21.20;64.00;;;;;;5002712;28;20037;-67
2023/06/18 01:05:45;;;;;;;4.03;3.72;;;21.20;63.90;;;;;;5000825;28;20037;-66
2023/06/18 01:08:12;;;;;;;3.45;3.17;;;21.20;64.00;;;;;;5003514;28;20472;-65
2023/06/18 01:10:39;;;;;;;3.60;3.30;;;21.20;63.90;;;;;;5003265;28;20131;-67
2023/06/18 01:13:08;;;;;;;3.50;3.20;;;21.20;64.00;;;;;;4999099;28;20806;-65
2023/06/18 01:15:33;;;;;;;3.72;3.28;;;21.20;63.90;;;;;;5002328;28;20037;-67
2023/06/18 01:18:00;;;;;;;4.68;3.83;;;21.20;63.90;;;;;;4998901;28;20030;-66
2023/06/18 01:20:27;;;;;;;3.53;3.22;;;21.20;64.00;;;;;;5001455;28;20034;-67
2023/06/18 01:22:57;;;;;;;3.80;3.50;;;21.20;64.00;;;;;;4999337;28;20041;-66
2023/06/18 01:25:26;;;;;;;4.20;3.42;;;21.20;63.90;;;;;;5000096;28;20084;-67
2023/06/18 01:27:53;;;;;;;3.38;3.08;;;21.20;63.90;;;;;;5001486;28;20030;-66
2023/06/18 01:30:20;;;;;;;3.50;3.20;;;21.20;63.90;;;;;;5002596;28;20534;-67
2023/06/18 01:32:46;;;;;;;3.80;3.50;;;21.20;64.00;;;;;;5002502;28;20034;-66
2023/06/18 01:35:16;;;;;;;3.28;2.97;;;21.20;63.90;;;;;;4999419;28;20058;-66
2023/06/18 01:38:09;;;;;;;3.70;3.40;;;21.20;63.90;;;;;;5001606;28;20416;-67
2023/06/18 01:40:49;;;;;;;3.97;3.63;;;21.20;63.90;;;;;;5002080;28;20673;-67
2023/06/18 01:43:30;;;;;;;4.00;3.60;;;21.20;64.00;;;;;;4999609;28;20532;-67
2023/06/18 01:46:06;;;;;;;3.72;3.33;;;21.20;64.10;;;;;;5000600;28;20281;-67
2023/06/18 01:48:37;;;;;;;3.33;3.03;;;21.20;63.90;;;;;;5001254;28;20397;-67
2023/06/18 01:51:05;;;;;;;4.03;3.63;;;21.20;63.90;;;;;;5000114;28;20157;-66
2023/06/18 01:53:32;;;;;;;3.47;3.13;;;21.20;63.90;;;;;;5001519;28;20180;-67
2023/06/18 01:56:00;;;;;;;3.33;3.08;;;21.20;64.00;;;;;;5001605;28;20030;-66
2023/06/18 01:58:26;;;;;;;3.38;3.13;;;21.20;63.90;;;;;;5000355;28;20488;-66
2023/06/18 02:00:52;;;;;;;3.25;2.95;;;21.20;64.00;;;;;;5002035;28;20037;-65
2023/06/18 02:03:19;;;;;;;3.45;3.15;;;21.20;63.90;;;;;;5001978;28;20416;-67
2023/06/18 02:05:45;;;;;;;3.75;3.38;;;21.20;63.90;;;;;;5000545;28;20042;-66
2023/06/18 02:08:11;;;;;;;3.50;3.20;;;21.20;63.90;;;;;;5005318;28;20814;-66
2023/06/18 02:10:37;;;;;;;3.63;3.33;;;21.20;64.10;;;;;;5005226;28;20460;-66
2023/06/18 02:13:02;;;;;;;3.58;3.28;;;21.20;64.00;;;;;;5001853;28;20555;-66
2023/06/18 02:15:29;;;;;;;3.63;3.33;;;21.20;64.00;;;;;;5003332;28;20931;-66
2023/06/18 02:17:54;;;;;;;3.33;3.03;;;21.20;63.90;;;;;;5005119;28;20034;-66
2023/06/18 02:20:20;;;;;;;3.92;3.63;;;21.10;63.90;;;;;;5005439;28;20026;-67
2023/06/18 02:22:45;;;;;;;3.67;3.20;;;21.20;64.00;;;;;;5003710;28;20044;-66
2023/06/18 02:25:11;;;;;;;3.80;3.38;;;21.20;64.10;;;;;;5002492;28;20046;-67
2023/06/18 02:27:36;;;;;;;3.97;3.67;;;21.20;64.00;;;;;;5004560;28;20716;-67
2023/06/18 02:30:03;;;;;;;3.78;3.47;;;21.20;64.10;;;;;;5004719;28;20026;-66
2023/06/18 02:32:31;;;;;;;4.05;3.65;;;21.20;64.00;;;;;;5005214;28;20025;-66
2023/06/18 02:34:56;;;;;;;3.75;3.33;;;21.20;63.90;;;;;;5003050;28;20038;-67
2023/06/18 02:37:22;;;;;;;3.17;2.97;;;21.10;63.90;;;;;;5002319;28;20562;-66
2023/06/18 02:39:47;;;;;;;4.07;3.70;;;21.10;63.90;;;;;;4999268;28;20488;-66
2023/06/18 02:42:13;;;;;;;3.50;3.20;;;21.10;63.90;;;;;;5006360;28;20041;-66
2023/06/18 02:44:42;;;;;;;3.88;3.58;;;21.10;64.00;;;;;;5005822;28;20030;-66
2023/06/18 02:47:08;;;;;;;3.50;3.20;;;21.20;64.00;;;;;;5004212;28;20091;-66
2023/06/18 02:49:34;;;;;;;4.10;3.72;;;21.10;64.00;;;;;;5004990;28;20417;-67
2023/06/18 02:51:59;;;;;;;3.78;3.42;;;21.10;64.60;;;;;;5004495;28;20131;-65
2023/06/18 02:54:25;;;;;;;3.80;3.50;;;21.10;64.00;;;;;;5005364;28;20507;-68
2023/06/18 02:56:50;;;;;;;3.90;3.60;;;21.20;64.10;;;;;;5004403;28;20574;-65
2023/06/18 02:59:16;;;;;;;4.15;3.78;;;21.10;64.00;;;;;;5004278;28;20047;-66
2023/06/18 03:01:44;;;;;;;4.60;3.40;;;21.10;63.90;;;;;;5004459;28;20061;-65
2023/06/18 03:04:11;;;;;;;4.22;3.83;;;21.10;63.90;;;;;;5002682;28;20060;-66
2023/06/18 03:06:37;;;;;;;3.83;3.53;;;21.10;63.90;;;;;;5004526;28;20504;-66
2023/06/18 03:09:03;;;;;;;3.65;3.25;;;21.10;64.00;;;;;;5000437;28;20026;-66
2023/06/18 03:11:30;;;;;;;3.40;3.10;;;21.10;63.90;;;;;;5003539;28;20033;-66
2023/06/18 03:13:55;;;;;;;3.70;3.40;;;21.10;64.00;;;;;;5002581;28;20523;-67
2023/06/18 03:16:23;;;;;;;4.60;3.65;;;21.10;63.90;;;;;;5005712;28;20042;-67
2023/06/18 03:18:49;;;;;;;3.85;3.55;;;21.10;63.90;;;;;;5004646;28;20034;-67
2023/06/18 03:21:15;;;;;;;3.25;2.95;;;21.10;63.90;;;;;;5004826;28;20052;-66
2023/06/18 03:23:40;;;;;;;4.05;3.65;;;21.10;64.00;;;;;;5002802;28;20059;-66
2023/06/18 03:26:06;;;;;;;3.72;3.42;;;21.10;64.00;;;;;;5004825;28;20116;-66
2023/06/18 03:28:32;;;;;;;4.20;3.80;;;21.10;63.90;;;;;;5003201;28;20030;-67
2023/06/18 03:30:58;;;;;;;3.50;3.20;;;21.10;63.90;;;;;;5003278;28;20304;-66
2023/06/18 03:33:23;;;;;;;3.45;3.15;;;21.10;63.90;;;;;;5003234;28;20040;-66
2023/06/18 03:35:51;;;;;;;4.53;3.00;;;21.10;63.90;;;;;;5002845;28;20038;-66
2023/06/18 03:38:17;;;;;;;3.85;3.53;;;21.10;63.90;;;;;;5001791;28;20036;-67
2023/06/18 03:40:42;;;;;;;3.50;3.20;;;21.10;63.90;;;;;;5004938;28;20029;-66
2023/06/18 03:43:08;;;;;;;3.58;3.28;;;21.10;63.90;;;;;;5002097;28;20038;-66
2023/06/18 03:45:33;;;;;;;4.07;3.67;;;21.10;63.90;;;;;;5005196;28;20637;-67
2023/06/18 03:47:59;;;;;;;4.15;3.75;;;21.10;63.80;;;;;;5004558;28;20655;-67
2023/06/18 03:50:24;;;;;;;3.60;3.30;;;21.10;63.80;;;;;;5005134;28;20054;-67
2023/06/18 03:52:50;;;;;;;3.92;3.63;;;21.10;63.80;;;;;;5004261;28;20338;-67
2023/06/18 03:55:15;;;;;;;3.88;3.58;;;21.10;63.80;;;;;;5002179;28;20045;-66
2023/06/18 03:57:41;;;;;;;3.50;3.20;;;21.20;63.80;;;;;;5004765;28;20036;-67
2023/06/18 04:00:08;;;;;;;3.83;3.53;;;21.10;63.80;;;;;;5002755;28;20403;-66
2023/06/18 04:02:34;;;;;;;3.72;3.42;;;21.10;63.80;;;;;;5003516;28;20122;-67
2023/06/18 04:05:00;;;;;;;3.78;3.40;;;21.10;63.90;;;;;;5003309;28;20530;-66
2023/06/18 04:07:26;;;;;;;3.65;3.35;;;21.10;63.80;;;;;;5004489;28;20117;-67
2023/06/18 04:09:51;;;;;;;4.28;3.88;;;21.10;63.90;;;;;;5005684;28;20092;-66
2023/06/18 04:12:17;;;;;;;3.70;3.40;;;21.10;63.80;;;;;;5005831;28;20550;-67
2023/06/18 04:14:42;;;;;;;3.95;3.65;;;21.10;63.90;;;;;;5004260;28;20030;-67
2023/06/18 04:17:08;;;;;;;3.90;3.60;;;21.10;63.90;;;;;;5006034;28;20117;-67
2023/06/18 04:19:33;;;;;;;4.32;3.92;;;21.10;63.80;;;;;;5012478;28;20033;-67
2023/06/18 04:21:59;;;;;;;3.97;3.67;;;21.10;63.80;;;;;;5012286;28;20029;-66
2023/06/18 04:24:24;;;;;;;4.25;3.85;;;21.10;63.80;;;;;;5006385;28;20064;-67
2023/06/18 04:26:50;;;;;;;4.07;3.67;;;21.10;63.90;;;;;;5004937;28;20342;-66
2023/06/18 04:29:15;;;;;;;4.03;3.72;;;21.10;63.80;;;;;;5003734;28;20048;-66
2023/06/18 04:31:41;;;;;;;4.47;4.07;;;21.10;63.80;;;;;;5003184;28;20056;-65
2023/06/18 04:34:07;;;;;;;4.25;3.88;;;21.10;63.90;;;;;;5002647;28;20041;-66
2023/06/18 04:36:33;;;;;;;4.18;3.72;;;21.10;63.90;;;;;;5001502;28;20224;-66
2023/06/18 04:38:59;;;;;;;4.32;3.92;;;21.10;63.90;;;;;;5003055;28;20045;-66
2023/06/18 04:41:25;;;;;;;4.03;3.63;;;21.20;63.90;;;;;;5002474;28;20030;-65
2023/06/18 04:43:51;;;;;;;4.10;3.70;;;21.20;63.70;;;;;;5001636;28;20030;-66
2023/06/18 04:46:16;;;;;;;4.13;3.72;;;21.20;63.70;;;;;;5002608;28;20062;-66
2023/06/18 04:48:42;;;;;;;3.90;3.55;;;21.20;63.70;;;;;;5002921;28;20025;-66
2023/06/18 04:51:08;;;;;;;4.18;3.78;;;21.20;63.70;;;;;;5003016;28;20034;-66
2023/06/18 04:53:33;;;;;;;4.40;4.00;;;21.20;63.70;;;;;;5003082;28;20033;-66
2023/06/18 04:56:00;;;;;;;4.93;4.53;;;21.20;63.70;;;;;;5001115;28;20381;-65
2023/06/18 04:58:27;;;;;;;4.40;3.97;;;21.20;63.80;;;;;;5003573;28;20033;-67
2023/06/18 05:00:53;;;;;;;4.32;3.92;;;21.20;63.90;;;;;;5002319;28;20033;-66
2023/06/18 05:03:18;;;;;;;4.15;3.53;;;21.30;64.00;;;;;;4999265;28;20042;-65
2023/06/18 05:05:44;;;;;;;3.78;3.47;;;21.30;64.00;;;;;;5002730;28;20033;-66
2023/06/18 05:08:09;;;;;;;4.20;3.80;;;21.30;64.10;;;;;;5003212;28;20062;-65
2023/06/18 05:10:35;;;;;;;4.60;4.20;;;21.30;64.00;;;;;;5001298;28;20038;-66
2023/06/18 05:13:01;;;;;;;4.55;4.00;;;21.30;64.00;;;;;;5000836;28;20413;-66
2023/06/18 05:15:26;;;;;;;4.30;3.83;;;21.30;64.00;;;;;;5001606;28;20030;-66
2023/06/18 05:17:52;;;;;;;4.20;3.90;;;21.30;64.20;;;;;;5003133;28;20128;-66
2023/06/18 05:20:17;;;;;;;4.20;3.80;;;21.30;64.10;;;;;;5002772;28;20186;-66
2023/06/18 05:22:43;;;;;;;4.30;3.90;;;21.30;64.20;;;;;;5002802;28;20109;-66
2023/06/18 05:25:09;;;;;;;3.95;3.65;;;21.30;64.10;;;;;;5002074;28;20339;-65
2023/06/18 05:27:34;;;;;;;3.17;2.97;;;21.30;64.10;;;;;;4999984;28;20096;-66
2023/06/18 05:30:00;;;;;;;4.43;4.03;;;21.30;64.30;;;;;;5001609;28;20103;-66
2023/06/18 05:32:25;;;;;;;4.18;3.80;;;21.30;64.40;;;;;;4999962;28;20569;-66
2023/06/18 05:34:51;;;;;;;4.82;3.78;;;21.30;64.20;;;;;;5001180;28;20031;-65
2023/06/18 05:37:16;;;;;;;4.22;3.83;;;21.30;64.10;;;;;;5002405;28;20034;-66
2023/06/18 05:39:42;;;;;;;3.60;3.30;;;21.30;64.20;;;;;;4991996;28;20030;-65
2023/06/18 05:42:08;;;;;;;4.95;3.72;;;21.30;64.20;;;;;;5027488;28;20177;-66
2023/06/18 05:44:33;;;;;;;5.07;3.97;;;21.30;64.20;;;;;;5005128;28;20041;-66
2023/06/18 05:46:59;;;;;;;3.58;3.28;;;21.30;64.10;;;;;;5006382;28;20103;-66
2023/06/18 05:49:26;;;;;;;3.78;3.47;;;21.30;64.00;;;;;;5000758;28;20034;-65
2023/06/18 05:51:51;;;;;;;4.15;3.30;;;21.40;64.20;;;;;;5004847;28;20105;-66
2023/06/18 05:54:17;;;;;;;4.03;3.67;;;21.30;64.00;;;;;;5005000;28;20129;-66
2023/06/18 05:56:43;;;;;;;4.13;3.72;;;21.30;63.90;;;;;;5006928;28;20037;-66
2023/06/18 05:59:09;;;;;;;4.00;3.70;;;21.30;64.00;;;;;;5005607;28;20030;-66
2023/06/18 06:01:35;;;;;;;3.53;3.22;;;21.30;64.00;;;;;;5002839;28;20036;-66
2023/06/18 06:04:01;;;;;;;4.00;3.70;;;21.30;63.90;;;;;;5002862;28;20514;-66
2023/06/18 06:06:27;;;;;;;3.88;3.58;;;21.30;64.10;;;;;;5004001;28;20034;-63
2023/06/18 06:08:53;;;;;;;3.85;3.47;;;21.30;64.10;;;;;;5006946;28;20060;-66
2023/06/18 06:11:18;;;;;;;3.67;3.38;;;21.30;64.10;;;;;;5002579;28;20088;-65
2023/06/18 06:13:45;;;;;;;3.83;3.53;;;21.30;64.10;;;;;;5004008;28;20072;-66
2023/06/18 06:16:10;;;;;;;3.50;3.20;;;21.30;64.00;;;;;;5004387;28;20034;-66
2023/06/18 06:18:36;;;;;;;4.20;3.80;;;21.30;63.80;;;;;;5004209;28;20397;-65
2023/06/18 06:21:01;;;;;;;3.67;3.38;;;21.30;63.90;;;;;;5005366;28;20105;-65
2023/06/18 06:23:27;;;;;;;3.80;3.50;;;21.30;63.80;;;;;;5004380;28;20515;-66
2023/06/18 06:25:52;;;;;;;4.10;3.58;;;21.30;63.80;;;;;;5005173;28;20041;-66
2023/06/18 06:28:18;;;;;;;3.92;3.63;;;21.30;63.80;;;;;;5005137;28;20069;-67
2023/06/18 06:30:43;;;;;;;3.63;3.33;;;21.30;63.80;;;;;;5005516;28;20030;-66
2023/06/18 06:33:09;;;;;;;4.32;3.92;;;21.30;63.80;;;;;;5005784;28;20195;-66
2023/06/18 06:35:36;;;;;;;3.90;3.60;;;21.40;63.80;;;;;;5003019;28;20037;-70
2023/06/18 06:38:02;;;;;;;4.38;4.03;;;21.30;63.80;;;;;;5005466;28;20030;-66
2023/06/18 06:40:27;;;;;;;4.07;3.78;;;21.30;64.00;;;;;;5005563;28;20029;-67
2023/06/18 06:42:53;;;;;;;4.18;3.78;;;21.30;63.90;;;;;;5003275;28;20129;-67
2023/06/18 06:45:18;;;;;;;4.25;3.88;;;21.30;63.80;;;;;;5007211;28;21025;-66
2023/06/18 06:47:46;;;;;;;4.22;3.88;;;21.30;63.80;;;;;;5003451;28;20026;-68
2023/06/18 06:50:11;;;;;;;4.25;3.95;;;21.30;63.80;;;;;;5002459;28;20181;-68
2023/06/18 06:52:37;;;;;;;5.00;4.38;;;21.30;63.80;;;;;;5004399;28;20112;-65
2023/06/18 06:55:03;;;;;;;5.13;3.95;;;21.30;63.80;;;;;;5003055;28;20037;-64
2023/06/18 06:57:28;;;;;;;4.82;4.43;;;21.30;63.80;;;;;;5003650;28;20376;-65
2023/06/18 06:59:53;;;;;;;6.53;4.47;;;21.30;63.80;;;;;;5003549;28;20571;-64
2023/06/18 07:02:19;;;;;;;5.00;4.60;;;21.30;63.70;;;;;;5001329;28;20034;-67
2023/06/18 07:04:48;;;;;;;4.63;4.22;;;21.30;63.80;;;;;;5004287;28;20045;-66
2023/06/18 07:07:14;;;;;;;4.75;4.25;;;21.30;64.30;;;;;;5002453;28;20037;-67
2023/06/18 07:09:39;;;;;;;5.80;4.95;;;21.30;63.90;;;;;;5003205;28;20156;-66
2023/06/18 07:12:05;;;;;;;6.03;4.53;;;21.30;64.00;;;;;;5003506;28;20108;-67
2023/06/18 07:14:31;;;;;;;6.07;5.00;;;21.30;64.00;;;;;;5001956;28;20551;-67
2023/06/18 07:16:57;;;;;;;5.15;4.65;;;21.30;64.10;;;;;;4999420;28;20033;-67
2023/06/18 07:19:23;;;;;;;6.15;4.95;;;21.30;63.90;;;;;;5004077;28;20034;-67
2023/06/18 07:21:50;;;;;;;5.47;4.88;;;21.30;63.90;;;;;;5004166;28;20038;-66
2023/06/18 07:24:16;;;;;;;5.40;4.90;;;21.30;63.90;;;;;;5004210;28;20038;-66
2023/06/18 07:26:41;;;;;;;6.38;5.22;;;21.30;64.00;;;;;;5004764;28;20041;-66
2023/06/18 07:29:07;;;;;;;4.90;4.47;;;21.30;63.80;;;;;;5003338;28;20044;-66
2023/06/18 07:31:32;;;;;;;5.72;5.22;;;21.30;64.00;;;;;;4999356;28;20029;-65
2023/06/18 07:33:58;;;;;;;6.10;5.50;;;21.30;63.90;;;;;;5005053;28;20026;-66
2023/06/18 07:36:23;;;;;;;6.45;5.82;;;21.30;63.80;;;;;;4997851;28;20042;-66
2023/06/18 07:38:49;;;;;;;6.22;5.63;;;21.30;63.90;;;;;;5003396;28;20486;-66
2023/06/18 07:41:14;;;;;;;6.65;5.57;;;21.30;63.70;;;;;;5002363;28;20113;-65
2023/06/18 07:43:40;;;;;;;6.13;5.38;;;21.30;63.80;;;;;;5001776;28;20022;-66
2023/06/18 07:46:06;;;;;;;6.50;5.85;;;21.30;63.60;;;;;;5001940;28;20069;-66
2023/06/18 07:48:32;;;;;;;6.65;5.75;;;21.30;64.20;;;;;;5000753;28;20216;-66
2023/06/18 07:50:57;;;;;;;6.63;6.03;;;21.30;63.60;;;;;;4999792;28;20050;-65
2023/06/18 07:53:23;;;;;;;7.82;6.18;;;21.30;63.40;;;;;;5003587;28;20554;-67
2023/06/18 07:55:49;;;;;;;5.85;5.30;;;21.30;63.60;;;;;;5003628;28;20044;-66
2023/06/18 07:58:14;;;;;;;6.30;5.70;;;21.30;63.40;;;;;;4997376;28;20030;-67
2023/06/18 08:00:40;;;;;;;6.25;5.65;;;21.30;63.60;;;;;;5001638;28;20113;-67
2023/06/18 08:03:05;;;;;;;7.53;6.07;;;21.30;63.30;;;;;;5003428;28;20496;-67
2023/06/18 08:05:30;;;;;;;6.57;5.97;;;21.30;63.50;;;;;;5002512;28;20108;-68
2023/06/18 08:07:56;;;;;;;6.15;5.55;;;21.30;63.30;;;;;;5004741;28;20141;-66
2023/06/18 08:10:22;;;;;;;8.57;7.10;;;21.30;63.30;;;;;;5003047;28;20028;-67
2023/06/18 08:12:48;;;;;;;6.65;6.05;;;21.20;63.40;;;;;;5003841;28;20484;-66
2023/06/18 08:15:13;;;;;;;6.95;6.05;;;21.30;63.60;;;;;;5003567;28;20034;-67
2023/06/18 08:17:39;;;;;;;7.20;6.10;;;21.30;63.40;;;;;;5004344;28;20450;-66
2023/06/18 08:20:05;;;;;;;7.20;6.50;;;21.20;63.30;;;;;;5002855;28;20033;-67
2023/06/18 08:22:31;;;;;;;6.50;5.90;;;21.30;63.10;;;;;;5003255;28;20315;-66
2023/06/18 08:24:56;;;;;;;6.28;5.68;;;21.20;63.20;;;;;;5004611;28;20373;-66
2023/06/18 08:27:22;;;;;;;8.02;6.97;;;21.30;63.20;;;;;;4999744;28;20116;-66
2023/06/18 08:29:47;;;;;;;6.70;6.07;;;21.20;63.20;;;;;;5000603;28;20045;-66
2023/06/18 08:32:13;;;;;;;6.63;5.97;;;21.20;63.20;;;;;;5003579;28;20037;-66
2023/06/18 08:34:42;;;;;;;6.32;5.65;;;21.20;63.20;;;;;;5003425;28;20492;-67
2023/06/18 08:37:09;;;;;;;6.63;6.00;;;21.30;63.20;;;;;;5000658;28;20567;-68
2023/06/18 08:39:34;;;;;;;6.88;6.18;;;21.30;63.30;;;;;;5003721;28;20088;-66
2023/06/18 08:42:00;;;;;;;6.63;6.00;;;21.30;63.10;;;;;;5003695;28;20025;-66
2023/06/18 08:44:30;;;;;;;6.45;5.85;;;21.20;62.90;;;;;;5002933;28;20107;-70
2023/06/18 08:47:00;;;;;;;6.93;6.25;;;21.30;63.20;;;;;;5001401;28;20037;-68
2023/06/18 08:49:30;;;;;;;6.70;6.10;;;21.20;63.10;;;;;;5004199;28;20033;-66
2023/06/18 08:51:57;;;;;;;7.07;6.28;;;21.30;63.40;;;;;;5002003;28;20441;-66
2023/06/18 08:54:32;;;;;;;6.60;6.00;;;21.30;63.20;;;;;;4999922;28;20090;-66
2023/06/18 08:57:06;;;;;;;7.55;6.85;;;21.30;63.10;;;;;;5000694;28;20038;-66
2023/06/18 08:59:33;;;;;;;7.72;6.93;;;21.20;62.90;;;;;;5001025;28;20121;-67
2023/06/18 09:01:59;;;;;;;7.30;6.70;;;21.20;62.90;;;;;;5002699;28;20045;-66
2023/06/18 09:04:26;;;;;;;7.55;6.80;;;21.20;63.00;;;;;;5000483;28;20062;-64
2023/06/18 09:06:52;;;;;;;7.40;6.70;;;21.20;62.90;;;;;;5001293;28;20049;-64
2023/06/18 09:09:17;;;;;;;7.25;6.65;;;21.20;62.90;;;;;;5002830;28;20026;-62
2023/06/18 09:11:43;;;;;;;7.28;6.57;;;21.20;62.90;;;;;;5001970;28;20404;-66
2023/06/18 09:14:09;;;;;;;7.45;6.75;;;21.20;62.80;;;;;;5002383;28;20030;-66
2023/06/18 09:16:34;;;;;;;8.38;6.55;;;21.20;62.70;;;;;;5004775;28;20037;-66
2023/06/18 09:19:00;;;;;;;7.68;6.88;;;21.20;62.80;;;;;;5002794;28;20048;-68
2023/06/18 09:21:37;;;;;;;7.88;7.07;;;21.20;62.80;;;;;;5005921;28;20034;-66
2023/06/18 09:24:07;;;;;;;7.90;7.20;;;21.20;62.80;;;;;;5005229;28;20036;-66
2023/06/18 09:26:34;;;;;;;7.53;6.70;;;21.20;63.20;;;;;;5004567;28;20025;-63
2023/06/18 09:29:07;;;;;;;7.93;7.22;;;21.20;63.30;;;;;;5007726;28;20038;-66
2023/06/18 09:31:34;;;;;;;7.90;7.10;;;21.20;63.20;;;;;;5006293;28;20034;-66
2023/06/18 09:34:19;;;;;;;7.97;7.28;;;21.20;64.10;;;;;;5005674;28;20495;-62
2023/06/18 09:36:47;;;;;;;7.70;6.90;;;21.20;64.20;;;;;;5005685;28;20041;-60
2023/06/18 09:39:20;;;;;;;7.38;6.68;;;21.20;64.10;;;;;;5004953;28;20675;-62
2023/06/18 09:41:47;;;;;;;11.23;7.10;;;21.30;64.50;;;;;;5005526;28;20033;-60
2023/06/18 09:44:20;;;;;;;9.05;8.20;;;21.30;64.20;;;;;;5004234;28;20042;-60
2023/06/18 09:46:48;;;;;;;9.18;8.27;;;21.30;65.00;;;;;;5004569;28;20030;-61
2023/06/18 09:49:16;;;;;;;10.55;7.78;;;21.30;64.40;;;;;;5006327;28;20034;-65
2023/06/18 09:51:42;;;;;;;7.82;7.03;;;21.30;64.40;;;;;;5001850;28;20057;-59
2023/06/18 09:54:08;;;;;;;7.10;6.40;;;21.20;64.30;;;;;;5002481;28;20030;-66
2023/06/18 09:56:35;;;;;;;8.40;7.60;;;21.30;64.30;;;;;;5005757;28;20034;-67
2023/06/18 09:59:04;;;;;;;10.65;7.50;;;21.30;64.10;;;;;;5006691;28;20041;-67
2023/06/18 10:01:44;;;;;;;8.93;8.02;;;21.30;64.00;;;;;;5006446;28;20040;-66
2023/06/18 10:04:10;;;;;;;10.05;8.35;;;21.30;64.00;;;;;;5011483;28;20029;-68
2023/06/18 10:06:37;;;;;;;10.40;8.50;;;21.30;63.80;;;;;;5019349;28;20052;-65
2023/06/18 10:09:05;;;;;;;8.85;8.05;;;21.30;63.80;;;;;;5005939;28;20087;-63
2023/06/18 10:11:31;;;;;;;7.93;7.13;;;21.30;63.80;;;;;;5006242;28;20381;-66
2023/06/18 10:14:02;;;;;;;8.48;7.55;;;21.30;63.60;;;;;;5006691;28;20026;-66
2023/06/18 10:16:30;;;;;;;8.40;7.05;;;21.30;63.60;;;;;;5004987;28;20034;-66
2023/06/18 10:19:01;;;;;;;8.18;7.15;;;21.30;64.20;;;;;;5003335;28;20393;-68
2023/06/18 10:21:28;;;;;;;9.13;7.32;;;21.30;63.50;;;;;;5003324;28;20121;-66
2023/06/18 10:23:57;;;;;;;9.02;7.63;;;21.30;63.40;;;;;;5006714;28;20057;-65
2023/06/18 10:26:23;;;;;;;7.43;6.53;;;21.30;63.30;;;;;;4999168;28;20037;-67
2023/06/18 10:28:51;;;;;;;8.82;7.13;;;21.30;63.30;;;;;;5004785;28;20033;-67
2023/06/18 10:31:18;;;;;;;9.00;7.53;;;21.30;63.20;;;;;;5003344;28;20038;-64
2023/06/18 10:33:45;;;;;;;8.88;6.32;;;21.30;63.20;;;;;;5004854;28;20079;-63
2023/06/18 10:36:11;;;;;;;7.97;7.07;;;21.30;63.10;;;;;;5005239;28;20137;-66
2023/06/18 10:38:36;;;;;;;11.27;7.32;;;21.30;63.10;;;;;;5006281;28;20105;-65
2023/06/18 10:41:13;;;;;;;12.07;7.43;;;21.30;63.10;;;;;;5002423;28;20061;-63
2023/06/18 10:43:41;;;;;;;11.13;8.32;;;21.30;63.00;;;;;;5002038;28;20061;-67
2023/06/18 10:46:12;;;;;;;13.73;8.05;;;21.30;63.00;;;;;;5003669;28;20568;-66
2023/06/18 10:48:37;;;;;;;12.68;8.27;;;21.30;63.00;;;;;;5005859;28;20072;-66
2023/06/18 10:51:14;;;;;;;9.13;7.47;;;21.30;63.00;;;;;;5005577;28;20034;-65
2023/06/18 10:53:42;;;;;;;10.82;7.68;;;21.30;63.00;;;;;;5001335;28;20034;-66
2023/06/18 10:56:08;;;;;;;10.75;8.15;;;21.30;63.00;;;;;;4999585;28;20107;-66
2023/06/18 10:58:37;;;;;;;10.05;7.45;;;21.30;63.00;;;;;;5003824;28;20029;-66
2023/06/18 11:01:03;;;;;;;10.93;7.80;;;21.30;63.00;;;;;;5005748;28;20033;-66
2023/06/18 11:03:36;;;;;;;8.25;7.25;;;21.30;63.00;;;;;;5004721;28;20404;-66
2023/06/18 11:06:04;;;;;;;8.73;7.60;;;21.30;63.00;;;;;;5004926;28;20037;-63
2023/06/18 11:08:33;;;;;;;13.07;8.15;;;21.30;62.90;;;;;;5005338;28;20392;-65
2023/06/18 11:11:07;;;;;;;11.52;7.78;;;21.30;62.90;;;;;;5005159;28;20048;-65
2023/06/18 11:13:37;;;;;;;8.88;6.68;;;21.30;62.90;;;;;;4998202;28;20172;-63
2023/06/18 11:16:05;;;;;;;8.48;7.20;;;21.30;62.90;;;;;;5001375;28;20129;-66
2023/06/18 11:18:31;;;;;;;7.68;6.88;;;21.30;62.90;;;;;;5004747;28;20030;-66
2023/06/18 11:20:58;;;;;;;11.23;8.00;;;21.30;62.90;;;;;;5005259;28;20034;-65
2023/06/18 11:23:26;;;;;;;7.65;6.85;;;21.30;62.90;;;;;;5002015;28;20037;-66
2023/06/18 11:25:52;;;;;;;8.52;7.57;;;21.30;62.90;;;;;;5004860;28;20112;-66
2023/06/18 11:28:19;;;;;;;7.63;6.82;;;21.30;62.90;;;;;;5002742;28;20049;-65
2023/06/18 11:30:48;;;;;;;8.35;7.45;;;21.30;62.90;;;;;;5004693;28;20172;-65
2023/06/18 11:33:13;;;;;;;8.43;7.50;;;21.30;62.90;;;;;;5004221;28;20307;-63
2023/06/18 11:35:39;;;;;;;7.72;6.90;;;21.30;62.90;;;;;;5002497;28;20030;-66
2023/06/18 11:38:04;;;;;;;9.57;6.95;;;21.30;62.80;;;;;;5004545;28;20392;-66
2023/06/18 11:40:30;;;;;;;8.60;7.70;;;21.40;62.90;;;;;;4996719;28;20064;-66
2023/06/18 11:42:55;;;;;;;66.07;30.92;;;21.30;62.70;;;;;;4999976;28;20036;-65
2023/06/18 11:45:21;;;;;;;126.57;57.80;;;21.30;62.70;;;;;;5004000;28;20037;-65
2023/06/18 11:47:49;;;;;;;189.38;94.28;;;21.30;62.70;;;;;;5003027;28;20574;-65
2023/06/18 11:50:16;;;;;;;246.00;117.20;;;21.30;62.60;;;;;;5001387;28;20404;-61
2023/06/18 11:52:43;;;;;;;227.27;115.45;;;21.30;62.70;;;;;;5001981;28;20022;-64
2023/06/18 11:55:08;;;;;;;202.05;103.15;;;21.30;62.80;;;;;;5001673;28;20057;-65
2023/06/18 11:57:34;;;;;;;193.95;95.53;;;21.40;62.80;;;;;;5002005;28;20124;-65
2023/06/18 12:00:00;;;;;;;196.23;88.63;;;21.40;62.90;;;;;;5004937;28;20026;-65
2023/06/18 12:02:29;;;;;;;150.18;75.65;;;21.40;62.90;;;;;;5004593;28;20365;-67
2023/06/18 12:05:04;;;;;;;137.20;67.72;;;21.40;62.90;;;;;;5002275;28;20081;-65
2023/06/18 12:07:30;;;;;;;110.45;58.05;;;21.40;62.90;;;;;;5003311;28;20037;-65
2023/06/18 12:09:58;;;;;;;108.63;55.33;;;21.40;62.80;;;;;;5004339;28;20037;-66
2023/06/18 12:12:43;;;;;;;97.03;50.03;;;21.40;62.70;;;;;;4998911;28;20555;-63
2023/06/18 12:15:33;;;;;;;88.20;45.50;;;21.40;62.70;;;;;;5003003;28;20488;-67
2023/06/18 12:18:23;;;;;;;83.68;44.25;;;21.40;62.60;;;;;;5003929;28;20389;-66
2023/06/18 12:20:49;;;;;;;80.47;39.53;;;21.40;62.50;;;;;;5001072;28;20038;-62
2023/06/18 12:23:16;;;;;;;66.45;36.35;;;21.40;62.50;;;;;;5003795;28;20373;-65
2023/06/18 12:25:42;;;;;;;55.60;30.63;;;21.40;62.50;;;;;;5002884;28;20065;-64
2023/06/18 12:28:08;;;;;;;56.70;30.10;;;21.40;62.50;;;;;;5004100;28;20018;-66
2023/06/18 12:30:39;;;;;;;47.47;26.73;;;21.40;62.50;;;;;;5004098;28;20539;-65
2023/06/18 12:33:15;;;;;;;45.85;26.05;;;21.40;62.40;;;;;;5001125;28;20030;-63
2023/06/18 12:35:50;;;;;;;42.25;23.25;;;21.40;62.30;;;;;;5002960;28;20392;-66
2023/06/18 12:38:16;;;;;;;36.92;22.58;;;21.40;62.90;;;;;;5004395;28;20381;-66
2023/06/18 12:40:56;;;;;;;36.35;21.75;;;21.40;62.20;;;;;;5001426;28;20388;-67
2023/06/18 12:43:22;;;;;;;30.00;19.83;;;21.40;62.20;;;;;;5001429;28;20042;-67